aviador You're here:

KSYR Decoded Metar

SYRACUSE in NY, USA
Report Time2018-07-19 04:54:00
UTC Time2018-07-19 05:38:38
Flight Rules vfr VFR
WindCalm
Visibility9999 m
Phenomena:N/A
Clouds:Few 200 Hf
Expected CloudBase > 1,200 ft AGL from Temp-Dew spread
CeilingNone
Temp14°C (ISA -0)
Dew Point11°C (82% RH)
QNH1018 hPa
Density Alt407 ft
Elevation417 ft
Report Wrong Elevation
Raw Report
KSYR 190454Z 00000KT 10SM FEW200 14/11 A3006 RMK AO2 SLP175
T01390111 402330139=

Extra information for KSYR:More info

Metar Taf Metar & Taf Last 4 Metars F.Rules Stats Wind Profile Meteogram Temp Stats Airport Information Weather charts Add Link Nearby VenuesMetar ALERT Operation Metar Decoded Social comments

AIRNAV info for KSYR